Time;durP1;ratioP1;P1;durP2;ratioP2;P2;SDS_P1;SDS_P2;PMS_P1;PMS_P2;Temp;Humidity;BMP_temperature;BMP_pressure;BME280_temperature;BME280_humidity;BME280_pressure;Samples;Min_cycle;Max_cycle;Signal;HPM_P1;HPM_P2
2023/06/08 00:01:39;;;;;;;14.40;7.82;;;12.00;99.90;;;;;;5078431;28;20480;-56
2023/06/08 00:04:07;;;;;;;14.73;7.07;;;11.90;99.90;;;;;;5076889;28;20049;-56
2023/06/08 00:06:33;;;;;;;13.50;7.88;;;12.00;99.90;;;;;;5067380;28;20060;-57
2023/06/08 00:09:01;;;;;;;14.77;7.90;;;11.90;99.90;;;;;;5069727;28;20079;-57
2023/06/08 00:11:27;;;;;;;13.65;7.85;;;12.00;99.90;;;;;;5078320;28;20041;-57
2023/06/08 00:13:53;;;;;;;12.68;7.38;;;11.90;99.90;;;;;;5057810;28;20049;-56
2023/06/08 00:16:20;;;;;;;14.18;7.90;;;11.90;99.90;;;;;;5078372;28;20127;-58
2023/06/08 00:18:46;;;;;;;13.52;7.60;;;11.90;99.90;;;;;;5072485;28;20062;-56
2023/06/08 00:21:15;;;;;;;13.43;7.75;;;11.90;99.90;;;;;;5069198;28;20112;-56
2023/06/08 00:23:41;;;;;;;16.95;8.32;;;12.00;99.90;;;;;;5073666;28;20049;-56
2023/06/08 00:26:07;;;;;;;13.27;7.68;;;12.00;99.90;;;;;;5068609;28;20080;-56
2023/06/08 00:28:32;;;;;;;11.98;7.32;;;12.00;99.90;;;;;;5059843;28;20052;-59
2023/06/08 00:30:58;;;;;;;12.10;7.70;;;12.10;99.90;;;;;;5069548;28;20045;-56
2023/06/08 00:33:24;;;;;;;17.48;8.13;;;12.10;99.90;;;;;;5062114;28;20045;-56
2023/06/08 00:35:50;;;;;;;14.25;8.18;;;12.20;99.90;;;;;;5072845;28;20048;-57
2023/06/08 00:38:15;;;;;;;12.30;7.85;;;12.20;99.90;;;;;;5074310;28;20045;-56
2023/06/08 00:40:44;;;;;;;15.05;8.38;;;12.20;99.90;;;;;;5062397;28;20041;-56
2023/06/08 00:43:10;;;;;;;13.93;8.55;;;12.30;99.90;;;;;;5073119;28;20040;-55
2023/06/08 00:45:35;;;;;;;18.75;8.80;;;12.30;99.90;;;;;;5080956;28;20037;-56
2023/06/08 00:48:02;;;;;;;15.25;9.60;;;12.30;99.90;;;;;;5081198;28;20045;-55
2023/06/08 00:50:31;;;;;;;18.75;10.15;;;12.30;99.90;;;;;;5095492;28;20051;-56
2023/06/08 00:52:57;;;;;;;17.88;9.95;;;12.30;99.90;;;;;;5102006;28;20032;-55
2023/06/08 00:55:24;;;;;;;16.05;9.80;;;12.20;99.90;;;;;;5074436;28;20051;-56
2023/06/08 00:57:51;;;;;;;18.52;10.45;;;12.20;99.90;;;;;;5061857;28;20052;-56
2023/06/08 01:00:17;;;;;;;16.35;10.88;;;12.20;99.90;;;;;;5061502;28;20513;-56
2023/06/08 01:02:43;;;;;;;15.60;10.38;;;12.10;99.90;;;;;;5065474;28;20116;-56
2023/06/08 01:05:09;;;;;;;18.80;10.10;;;12.10;99.90;;;;;;5066553;28;20061;-56
2023/06/08 01:07:49;;;;;;;21.02;10.20;;;12.10;99.90;;;;;;5065655;28;20041;-56
2023/06/08 01:10:14;;;;;;;19.35;10.38;;;12.10;99.90;;;;;;5061870;28;20052;-55
2023/06/08 01:12:47;;;;;;;19.15;11.27;;;12.10;99.90;;;;;;5079240;28;20052;-56
2023/06/08 01:15:23;;;;;;;18.90;10.90;;;12.00;99.90;;;;;;5080763;28;20445;-55
2023/06/08 01:17:57;;;;;;;;;;;12.00;99.90;;;;;;5061194;28;20037;-57
2023/06/08 01:21:07;;;;;;;14.05;9.02;;;11.90;99.90;;;;;;5074292;28;20388;-56
2023/06/08 01:23:54;;;;;;;16.52;9.75;;;11.90;99.90;;;;;;5080892;28;20054;-55
2023/06/08 01:26:20;;;;;;;19.13;10.05;;;11.90;99.90;;;;;;5060049;28;20081;-56
2023/06/08 01:28:50;;;;;;;16.63;8.98;;;11.90;99.90;;;;;;5064363;28;20039;-56
2023/06/08 01:31:16;;;;;;;19.45;10.02;;;11.90;99.90;;;;;;5075421;28;20062;-56
2023/06/08 01:33:42;;;;;;;16.20;9.35;;;11.90;99.90;;;;;;5073305;28;20070;-56
2023/06/08 01:36:25;;;;;;;20.27;10.25;;;11.90;99.90;;;;;;5079534;28;20050;-56
2023/06/08 01:39:07;;;;;;;14.68;8.55;;;11.90;99.90;;;;;;5060534;28;20053;-56
2023/06/08 01:41:37;;;;;;;19.00;9.07;;;11.80;99.90;;;;;;5060086;28;20041;-56
2023/06/08 01:44:06;;;;;;;17.35;9.40;;;11.90;99.90;;;;;;5060387;28;20045;-56
2023/06/08 01:46:32;;;;;;;17.75;9.43;;;11.90;99.90;;;;;;5061837;28;20056;-56
2023/06/08 01:49:01;;;;;;;14.82;9.02;;;11.90;99.90;;;;;;5063732;28;20096;-56
2023/06/08 01:51:28;;;;;;;17.42;9.38;;;11.90;99.90;;;;;;5059167;28;20071;-56
2023/06/08 01:54:01;;;;;;;16.65;9.35;;;11.90;99.90;;;;;;5073317;28;20064;-56
2023/06/08 01:56:34;;;;;;;17.08;10.20;;;11.90;99.90;;;;;;5069533;28;20036;-56
2023/06/08 01:59:00;;;;;;;15.48;9.55;;;11.90;99.90;;;;;;5068600;28;20049;-56
2023/06/08 02:01:25;;;;;;;16.90;9.18;;;11.90;99.90;;;;;;5070143;28;20048;-56
2023/06/08 02:03:51;;;;;;;17.70;9.50;;;11.90;99.90;;;;;;5065113;28;20037;-56
2023/06/08 02:06:17;;;;;;;15.00;9.57;;;11.90;99.90;;;;;;5059358;28;20523;-58
2023/06/08 02:08:43;;;;;;;25.33;9.95;;;12.00;99.90;;;;;;5061780;28;20052;-56
2023/06/08 02:11:10;;;;;;;16.90;9.60;;;12.00;99.90;;;;;;5060561;28;20041;-55
2023/06/08 02:13:39;;;;;;;15.15;8.98;;;12.00;99.90;;;;;;5059805;28;20551;-56
2023/06/08 02:16:05;;;;;;;18.50;9.27;;;12.00;99.90;;;;;;5060158;28;20067;-56
2023/06/08 02:18:34;;;;;;;16.92;8.73;;;12.00;99.90;;;;;;5059979;28;20037;-57
2023/06/08 02:21:02;;;;;;;16.05;8.77;;;12.00;99.90;;;;;;5059139;28;20064;-56
2023/06/08 02:23:28;;;;;;;17.17;9.15;;;12.00;99.90;;;;;;5059568;28;20072;-56
2023/06/08 02:25:54;;;;;;;14.15;8.13;;;11.90;99.90;;;;;;5059932;28;20037;-56
2023/06/08 02:28:20;;;;;;;17.15;8.63;;;12.00;99.90;;;;;;5059998;28;20045;-57
2023/06/08 02:30:46;;;;;;;17.20;9.00;;;12.00;99.90;;;;;;5058480;28;20072;-56
2023/06/08 02:33:14;;;;;;;17.13;9.02;;;12.00;99.90;;;;;;5074937;28;20044;-57
2023/06/08 02:35:39;;;;;;;19.02;9.32;;;12.00;99.90;;;;;;5076664;28;20044;-56
2023/06/08 02:38:06;;;;;;;16.52;9.05;;;12.00;99.90;;;;;;5068044;28;20048;-57
2023/06/08 02:40:31;;;;;;;17.10;9.63;;;12.00;99.90;;;;;;5059646;28;20043;-56
2023/06/08 02:42:58;;;;;;;18.02;9.30;;;12.00;99.90;;;;;;5075088;28;20127;-58
2023/06/08 02:45:24;;;;;;;18.42;9.27;;;12.00;99.90;;;;;;5079614;28;20538;-56
2023/06/08 02:47:50;;;;;;;15.38;8.82;;;12.00;99.90;;;;;;5071162;28;20106;-57
2023/06/08 02:50:16;;;;;;;16.08;8.05;;;12.00;99.90;;;;;;5079287;28;20496;-57
2023/06/08 02:52:42;;;;;;;15.25;7.88;;;12.00;99.90;;;;;;5078365;28;20029;-56
2023/06/08 02:55:08;;;;;;;14.73;8.35;;;12.00;99.90;;;;;;5077702;28;20492;-56
2023/06/08 02:57:34;;;;;;;12.82;7.80;;;12.00;99.90;;;;;;5068690;28;20059;-56
2023/06/08 03:00:00;;;;;;;14.93;8.23;;;12.00;99.90;;;;;;5079003;28;20290;-57
2023/06/08 03:02:27;;;;;;;14.95;8.20;;;12.00;99.90;;;;;;5062327;28;20040;-57
2023/06/08 03:04:53;;;;;;;12.73;7.03;;;12.00;99.90;;;;;;5068380;28;20199;-56
2023/06/08 03:07:19;;;;;;;12.43;6.95;;;12.00;99.90;;;;;;5075162;28;20052;-56
2023/06/08 03:09:45;;;;;;;14.23;7.63;;;12.00;99.90;;;;;;5059427;28;20067;-56
2023/06/08 03:12:12;;;;;;;15.73;7.75;;;12.00;99.90;;;;;;5061627;28;20041;-56
2023/06/08 03:14:41;;;;;;;18.30;7.43;;;12.10;99.90;;;;;;5059135;28;20048;-56
2023/06/08 03:17:07;;;;;;;15.98;8.45;;;12.00;99.90;;;;;;5066201;28;20048;-58
2023/06/08 03:19:33;;;;;;;13.35;6.78;;;12.10;99.90;;;;;;5078076;28;20051;-56
2023/06/08 03:22:00;;;;;;;16.20;8.27;;;12.10;99.90;;;;;;5078489;28;20044;-57
2023/06/08 03:24:31;;;;;;;13.07;7.68;;;12.00;99.90;;;;;;5078073;28;20048;-57
2023/06/08 03:27:00;;;;;;;14.90;8.40;;;12.00;99.90;;;;;;5076522;28;20052;-56
2023/06/08 03:29:26;;;;;;;18.70;7.95;;;12.00;99.90;;;;;;5069787;28;20124;-57
2023/06/08 03:31:52;;;;;;;18.63;8.18;;;12.00;99.90;;;;;;5058945;28;20473;-56
2023/06/08 03:34:18;;;;;;;18.55;8.20;;;12.00;99.90;;;;;;5058828;28;20044;-56
2023/06/08 03:36:44;;;;;;;16.77;9.27;;;11.90;99.90;;;;;;5059227;28;20048;-56
2023/06/08 03:39:11;;;;;;;12.80;8.27;;;12.00;99.90;;;;;;5058446;28;20029;-56
2023/06/08 03:41:37;;;;;;;20.35;9.95;;;11.90;99.90;;;;;;5077335;28;20075;-57
2023/06/08 03:44:03;;;;;;;18.23;8.70;;;11.90;99.90;;;;;;5075374;28;20051;-56
2023/06/08 03:46:28;;;;;;;19.48;9.02;;;11.90;99.90;;;;;;5078139;28;20041;-57
2023/06/08 03:48:54;;;;;;;14.52;8.75;;;11.90;99.90;;;;;;5062067;28;20557;-56
2023/06/08 03:51:25;;;;;;;16.85;9.52;;;11.90;99.90;;;;;;5058353;28;20059;-57
2023/06/08 03:53:51;;;;;;;15.98;9.05;;;11.90;99.90;;;;;;5058895;28;20045;-57
2023/06/08 03:56:17;;;;;;;19.00;9.85;;;12.00;99.90;;;;;;5068121;28;20056;-56
2023/06/08 03:58:44;;;;;;;17.48;8.75;;;12.00;99.90;;;;;;5072291;28;20094;-57
2023/06/08 04:01:11;;;;;;;15.27;8.57;;;12.00;99.90;;;;;;5071892;28;20049;-56
2023/06/08 04:03:37;;;;;;;18.42;8.85;;;12.00;99.90;;;;;;5060530;28;20048;-56
2023/06/08 04:06:05;;;;;;;15.38;8.43;;;12.00;99.90;;;;;;5067979;28;20057;-57
2023/06/08 04:08:32;;;;;;;15.32;8.32;;;12.00;99.90;;;;;;5061916;28;20045;-57
2023/06/08 04:10:58;;;;;;;16.48;9.15;;;12.10;99.90;;;;;;5061476;28;20486;-56
2023/06/08 04:13:25;;;;;;;20.35;8.60;;;12.10;99.90;;;;;;5073653;28;20055;-56
2023/06/08 04:15:51;;;;;;;13.75;8.23;;;12.20;99.90;;;;;;5062239;28;20516;-57
2023/06/08 04:18:16;;;;;;;17.90;8.93;;;12.20;99.90;;;;;;5071861;28;20425;-57
2023/06/08 04:20:42;;;;;;;18.35;9.18;;;12.20;99.90;;;;;;5066903;28;20033;-57
2023/06/08 04:23:10;;;;;;;15.85;8.25;;;12.20;99.90;;;;;;5070377;28;20412;-56
2023/06/08 04:25:36;;;;;;;15.95;8.50;;;12.20;99.90;;;;;;5067997;28;20033;-56
2023/06/08 04:28:02;;;;;;;18.50;8.45;;;12.20;99.90;;;;;;5065722;28;20045;-56
2023/06/08 04:30:28;;;;;;;36.03;9.20;;;12.20;99.90;;;;;;5068405;28;20079;-57
2023/06/08 04:32:55;;;;;;;13.60;7.57;;;12.20;99.90;;;;;;5071124;28;20041;-56
2023/06/08 04:35:21;;;;;;;16.20;8.07;;;12.20;99.90;;;;;;5074641;28;20048;-56
2023/06/08 04:37:47;;;;;;;15.38;8.38;;;12.20;99.90;;;;;;5069886;28;20481;-57
2023/06/08 04:40:13;;;;;;;20.42;8.85;;;12.20;99.90;;;;;;5078185;28;20052;-56
2023/06/08 04:42:40;;;;;;;19.35;8.43;;;12.20;99.90;;;;;;5068723;28;20431;-56
2023/06/08 04:45:08;;;;;;;16.65;8.38;;;12.20;99.90;;;;;;5067148;28;20052;-56
2023/06/08 04:47:40;;;;;;;21.15;8.93;;;12.10;99.90;;;;;;5067207;28;20048;-56
2023/06/08 04:50:09;;;;;;;19.70;9.15;;;12.20;99.90;;;;;;5064780;28;20041;-56
2023/06/08 04:52:40;;;;;;;17.48;9.38;;;12.10;99.90;;;;;;5075541;28;20044;-56
2023/06/08 04:55:06;;;;;;;16.17;8.10;;;12.20;99.90;;;;;;5067907;28;20047;-59
2023/06/08 04:57:32;;;;;;;15.77;8.57;;;12.20;99.90;;;;;;5076257;28;20175;-56
2023/06/08 04:59:59;;;;;;;16.05;8.40;;;12.20;99.90;;;;;;5070396;28;20037;-56
2023/06/08 05:02:25;;;;;;;18.10;9.45;;;12.20;99.90;;;;;;5063755;28;20527;-56
2023/06/08 05:04:51;;;;;;;14.05;8.32;;;12.20;99.90;;;;;;5067560;28;20049;-55
2023/06/08 05:07:17;;;;;;;19.30;9.73;;;12.30;99.90;;;;;;5063447;28;20093;-56
2023/06/08 05:09:42;;;;;;;17.40;8.23;;;12.30;99.90;;;;;;5079387;28;20083;-55
2023/06/08 05:12:09;;;;;;;15.85;8.98;;;12.30;99.90;;;;;;5081576;28;20051;-55
2023/06/08 05:14:34;;;;;;;15.55;9.93;;;12.30;99.90;;;;;;5082568;28;20036;-55
2023/06/08 05:17:00;;;;;;;17.13;11.05;;;12.30;99.90;;;;;;5078824;28;20442;-55
2023/06/08 05:19:26;;;;;;;20.00;11.27;;;12.30;99.90;;;;;;5071284;28;20041;-56
2023/06/08 05:21:51;;;;;;;19.23;10.90;;;12.20;99.90;;;;;;5067345;28;20076;-56
2023/06/08 05:24:18;;;;;;;22.67;11.57;;;12.20;99.90;;;;;;5071611;28;20033;-57
2023/06/08 05:26:44;;;;;;;16.48;9.85;;;12.10;99.90;;;;;;5069211;28;20056;-55
2023/06/08 05:29:10;;;;;;;17.02;10.82;;;12.10;99.90;;;;;;5066013;28;20036;-56
2023/06/08 05:31:38;;;;;;;18.00;10.90;;;12.20;99.90;;;;;;5064880;28;20045;-56
2023/06/08 05:34:05;;;;;;;17.50;10.45;;;12.20;99.90;;;;;;5066104;28;20052;-56
2023/06/08 05:36:30;;;;;;;16.48;9.02;;;12.20;99.90;;;;;;5065449;28;20032;-56
2023/06/08 05:38:56;;;;;;;20.55;11.60;;;12.30;99.90;;;;;;5075127;28;20048;-56
2023/06/08 05:41:22;;;;;;;21.98;12.98;;;12.40;99.90;;;;;;5074828;28;20067;-56
2023/06/08 05:43:48;;;;;;;19.13;12.07;;;12.40;99.90;;;;;;5058914;28;20044;-56
2023/06/08 05:46:15;;;;;;;22.17;12.45;;;12.50;99.90;;;;;;5060605;28;20033;-56
2023/06/08 05:48:41;;;;;;;19.00;11.13;;;12.50;99.90;;;;;;5065704;28;20520;-56
2023/06/08 05:51:06;;;;;;;20.38;11.15;;;12.50;99.90;;;;;;5062464;28;20036;-56
2023/06/08 05:53:32;;;;;;;19.65;11.15;;;12.60;99.90;;;;;;5063992;28;20147;-55
2023/06/08 05:55:58;;;;;;;22.58;10.15;;;12.60;99.90;;;;;;5066867;28;20048;-56
2023/06/08 05:58:24;;;;;;;17.92;10.70;;;12.60;99.90;;;;;;5071507;28;20587;-56
2023/06/08 06:00:52;;;;;;;16.85;8.68;;;12.60;99.90;;;;;;5060253;28;20049;-55
2023/06/08 06:03:19;;;;;;;14.93;8.35;;;12.70;99.90;;;;;;5078254;28;20079;-55
2023/06/08 06:05:45;;;;;;;18.85;9.95;;;12.70;99.90;;;;;;5060320;28;20104;-56
2023/06/08 06:08:11;;;;;;;13.68;8.60;;;12.80;99.90;;;;;;5063283;28;20045;-55
2023/06/08 06:10:37;;;;;;;18.67;9.10;;;12.90;99.90;;;;;;5059985;28;20044;-56
2023/06/08 06:13:02;;;;;;;18.15;8.93;;;13.00;99.90;;;;;;5059905;28;20037;-55
2023/06/08 06:15:29;;;;;;;26.60;9.95;;;13.00;99.90;;;;;;5074416;28;20072;-56
2023/06/08 06:17:54;;;;;;;19.52;8.88;;;13.10;99.90;;;;;;5076545;28;20102;-55
2023/06/08 06:20:20;;;;;;;13.32;8.50;;;13.10;99.90;;;;;;5078539;28;20427;-56
2023/06/08 06:22:46;;;;;;;15.63;8.77;;;13.20;99.90;;;;;;5061195;28;20037;-55
2023/06/08 06:25:11;;;;;;;16.10;7.97;;;13.20;99.90;;;;;;5078016;28;20070;-56
2023/06/08 06:27:37;;;;;;;17.75;9.60;;;13.40;99.90;;;;;;5079264;28;20036;-56
2023/06/08 06:30:04;;;;;;;15.18;8.68;;;13.50;99.90;;;;;;5079545;28;20112;-56
2023/06/08 06:32:29;;;;;;;15.95;8.18;;;13.60;99.90;;;;;;5065395;28;20045;-56
2023/06/08 06:34:55;;;;;;;16.73;8.57;;;13.80;99.90;;;;;;5072660;28;20053;-56
2023/06/08 06:37:21;;;;;;;14.77;8.95;;;13.90;99.90;;;;;;5077594;28;20040;-56
2023/06/08 06:39:46;;;;;;;18.60;8.60;;;14.10;99.90;;;;;;5059804;28;20041;-56
2023/06/08 06:42:12;;;;;;;13.13;7.45;;;14.20;99.90;;;;;;5058541;28;20485;-56
2023/06/08 06:44:38;;;;;;;13.98;7.05;;;14.40;99.90;;;;;;5059194;28;20113;-56
2023/06/08 06:47:04;;;;;;;16.75;7.72;;;14.60;99.90;;;;;;5059751;28;20041;-56
2023/06/08 06:49:30;;;;;;;15.65;7.57;;;14.80;99.90;;;;;;5064939;28;20489;-56
2023/06/08 06:51:56;;;;;;;13.85;8.07;;;14.80;99.90;;;;;;5078283;28;20067;-58
2023/06/08 06:54:22;;;;;;;18.92;7.53;;;14.90;99.90;;;;;;5068213;28;20612;-56
2023/06/08 06:56:47;;;;;;;15.05;7.43;;;15.10;99.90;;;;;;5059132;28;20519;-57
2023/06/08 06:59:14;;;;;;;15.00;7.28;;;15.30;99.90;;;;;;5059329;28;20106;-56
2023/06/08 07:01:41;;;;;;;16.33;6.95;;;15.40;99.90;;;;;;5059179;28;20055;-56
2023/06/08 07:04:06;;;;;;;12.85;7.47;;;15.60;99.90;;;;;;5061566;28;20520;-56
2023/06/08 07:06:33;;;;;;;15.20;7.53;;;15.70;99.90;;;;;;5075909;28;20158;-56
2023/06/08 07:08:59;;;;;;;15.60;7.78;;;15.90;99.90;;;;;;5078961;28;20472;-56
2023/06/08 07:11:26;;;;;;;13.85;7.38;;;15.90;99.90;;;;;;5079129;28;20040;-56
2023/06/08 07:13:51;;;;;;;12.73;7.00;;;16.00;99.90;;;;;;5077550;28;20045;-56
2023/06/08 07:16:17;;;;;;;14.07;6.90;;;16.00;99.90;;;;;;5072250;28;20065;-56
2023/06/08 07:18:43;;;;;;;12.65;6.45;;;16.20;99.90;;;;;;5079068;28;20106;-57
2023/06/08 07:21:08;;;;;;;13.93;6.97;;;16.10;99.90;;;;;;5079048;28;20036;-56
2023/06/08 07:23:34;;;;;;;20.13;6.90;;;16.30;99.90;;;;;;5078105;28;20108;-56
2023/06/08 07:26:00;;;;;;;16.13;7.18;;;16.40;99.90;;;;;;5077531;28;20068;-56
2023/06/08 07:28:26;;;;;;;10.10;6.30;;;16.50;99.90;;;;;;5061998;28;20051;-56
2023/06/08 07:30:51;;;;;;;15.80;6.72;;;16.60;99.90;;;;;;5077674;28;20048;-56
2023/06/08 07:33:17;;;;;;;13.82;6.05;;;16.90;99.90;;;;;;5066600;28;20052;-56
2023/06/08 07:35:43;;;;;;;14.07;6.00;;;17.20;99.90;;;;;;5058608;28;20048;-56
2023/06/08 07:38:08;;;;;;;17.92;6.10;;;17.60;99.90;;;;;;5064691;28;20047;-58
2023/06/08 07:40:34;;;;;;;17.20;6.30;;;18.00;99.90;;;;;;5078892;28;20079;-56
2023/06/08 07:43:00;;;;;;;12.68;6.10;;;18.30;99.90;;;;;;5075938;28;20078;-57
2023/06/08 07:45:27;;;;;;;18.63;5.90;;;18.50;99.90;;;;;;5079150;28;20056;-56
2023/06/08 07:47:52;;;;;;;13.27;5.15;;;18.70;99.90;;;;;;5070140;28;20037;-57
2023/06/08 07:50:20;;;;;;;14.00;5.90;;;18.80;99.90;;;;;;5064629;28;20359;-56
2023/06/08 07:52:45;;;;;;;13.30;5.95;;;18.90;99.90;;;;;;5070999;28;20044;-56
2023/06/08 07:55:11;;;;;;;14.13;6.38;;;19.00;99.90;;;;;;5078901;28;20063;-56
2023/06/08 07:57:37;;;;;;;13.30;5.25;;;19.00;99.90;;;;;;5078300;28;20067;-56
2023/06/08 08:00:06;;;;;;;14.00;5.57;;;19.00;99.90;;;;;;5070663;28;20381;-56
2023/06/08 08:02:32;;;;;;;16.35;5.63;;;19.10;99.90;;;;;;5068219;28;20068;-56
2023/06/08 08:04:57;;;;;;;14.52;5.85;;;19.10;99.90;;;;;;5077843;28;20075;-56
2023/06/08 08:07:23;;;;;;;15.15;5.45;;;19.30;99.90;;;;;;5078851;28;20052;-57
2023/06/08 08:09:49;;;;;;;10.85;5.13;;;19.40;99.90;;;;;;5078344;28;20040;-56
2023/06/08 08:12:14;;;;;;;9.40;4.97;;;19.60;99.90;;;;;;5078489;28;20071;-56
2023/06/08 08:14:41;;;;;;;12.27;5.35;;;19.70;99.90;;;;;;5078497;28;20048;-56
2023/06/08 08:17:07;;;;;;;12.70;5.50;;;19.70;99.90;;;;;;5068617;28;20045;-56
2023/06/08 08:19:32;;;;;;;11.88;5.10;;;19.60;99.90;;;;;;5058846;28;20108;-56
2023/06/08 08:21:58;;;;;;;10.85;4.05;;;19.50;99.90;;;;;;5057846;28;20585;-56
2023/06/08 08:24:24;;;;;;;10.45;4.38;;;19.30;99.90;;;;;;5057081;28;20056;-57
2023/06/08 08:26:54;;;;;;;11.18;5.07;;;19.10;99.90;;;;;;5058111;28;20048;-56
2023/06/08 08:29:20;;;;;;;11.85;5.20;;;18.90;99.90;;;;;;5058787;28;20049;-56
2023/06/08 08:31:45;;;;;;;12.75;5.47;;;18.70;99.90;;;;;;5069311;28;20043;-56
2023/06/08 08:34:11;;;;;;;11.77;4.97;;;18.40;99.90;;;;;;5077323;28;20065;-56
2023/06/08 08:36:38;;;;;;;11.85;4.63;;;18.40;99.90;;;;;;5077478;28;20054;-56
2023/06/08 08:39:04;;;;;;;13.68;4.88;;;18.20;99.90;;;;;;5077834;28;20044;-57
2023/06/08 08:41:32;;;;;;;8.93;4.45;;;18.20;99.90;;;;;;5078478;28;20041;-57
2023/06/08 08:44:01;;;;;;;11.65;4.82;;;18.20;99.90;;;;;;5077951;28;20098;-56
2023/06/08 08:46:38;;;;;;;12.27;5.10;;;18.20;99.90;;;;;;5069919;28;20056;-57
2023/06/08 08:49:08;;;;;;;9.50;4.68;;;18.20;99.90;;;;;;5066307;28;20045;-56
2023/06/08 08:51:38;;;;;;;8.48;4.75;;;18.30;99.90;;;;;;5069411;28;20033;-56
2023/06/08 08:54:05;;;;;;;8.48;4.43;;;18.40;99.90;;;;;;5062282;28;20060;-56
2023/06/08 08:56:36;;;;;;;12.38;4.80;;;18.50;99.90;;;;;;5061381;28;20103;-56
2023/06/08 08:59:05;;;;;;;12.20;5.00;;;18.60;99.90;;;;;;5061913;28;20037;-56
2023/06/08 09:01:33;;;;;;;11.35;5.38;;;18.60;99.90;;;;;;5061499;28;20057;-56
2023/06/08 09:03:59;;;;;;;14.90;4.93;;;18.70;99.90;;;;;;5063732;28;20049;-56
2023/06/08 09:06:28;;;;;;;11.68;5.10;;;18.70;99.90;;;;;;5061630;28;20053;-56
2023/06/08 09:08:53;;;;;;;12.70;5.25;;;18.80;99.90;;;;;;5061260;28;20060;-56
2023/06/08 09:11:19;;;;;;;17.35;4.90;;;18.90;99.90;;;;;;5061967;28;20049;-57
2023/06/08 09:13:45;;;;;;;10.80;5.15;;;19.00;99.90;;;;;;5061028;28;20064;-57
2023/06/08 09:16:21;;;;;;;12.40;4.50;;;19.10;99.90;;;;;;5061718;28;20037;-56
2023/06/08 09:19:03;;;;;;;11.70;4.30;;;19.10;99.90;;;;;;5060825;28;20040;-56
2023/06/08 09:21:29;;;;;;;13.60;4.60;;;19.30;99.90;;;;;;5060931;28;20080;-56
2023/06/08 09:24:05;;;;;;;8.82;4.40;;;19.50;99.90;;;;;;5061588;28;20044;-56
2023/06/08 09:26:32;;;;;;;10.80;5.07;;;19.80;99.90;;;;;;5064344;28;20060;-55
2023/06/08 09:29:02;;;;;;;12.43;4.97;;;20.10;99.90;;;;;;5061339;28;20124;-56
2023/06/08 09:31:29;;;;;;;13.23;4.32;;;20.40;99.90;;;;;;5061997;28;20045;-55
2023/06/08 09:34:11;;;;;;;9.52;4.60;;;20.60;99.90;;;;;;5080378;28;20044;-57
2023/06/08 09:36:38;;;;;;;10.07;4.20;;;20.90;99.90;;;;;;5081475;28;20048;-56
2023/06/08 09:39:08;;;;;;;10.45;4.20;;;21.10;99.90;;;;;;5063126;28;20601;-56
2023/06/08 09:41:37;;;;;;;11.60;4.20;;;21.20;99.90;;;;;;5060905;28;20124;-57
2023/06/08 09:44:17;;;;;;;12.52;4.03;;;21.30;99.90;;;;;;5060606;28;20053;-57
2023/06/08 09:46:46;;;;;;;15.10;4.22;;;21.30;99.90;;;;;;5068986;28;20051;-56
2023/06/08 09:49:13;;;;;;;9.23;4.35;;;21.40;99.90;;;;;;5081244;28;20051;-56
2023/06/08 09:51:44;;;;;;;13.80;4.28;;;21.50;99.90;;;;;;5066836;28;20416;-56
2023/06/08 09:54:13;;;;;;;10.43;5.13;;;21.60;99.90;;;;;;5066802;28;20041;-58
2023/06/08 09:56:42;;;;;;;12.05;4.50;;;21.50;99.90;;;;;;5080320;28;20371;-57
2023/06/08 09:59:11;;;;;;;10.57;4.55;;;21.50;99.90;;;;;;5072665;28;20082;-57
2023/06/08 10:01:49;;;;;;;12.15;4.90;;;21.50;99.90;;;;;;5059767;28;20041;-57
2023/06/08 10:04:18;;;;;;;10.88;5.22;;;21.60;99.90;;;;;;5066205;28;20100;-56
2023/06/08 10:06:46;;;;;;;14.43;4.28;;;21.70;99.90;;;;;;5079344;28;20044;-56
2023/06/08 10:09:13;;;;;;;11.18;4.68;;;21.80;99.90;;;;;;5066887;28;20043;-57
2023/06/08 10:11:40;;;;;;;7.05;3.80;;;21.80;99.90;;;;;;5057259;28;20051;-57
2023/06/08 10:14:26;;;;;;;10.82;4.70;;;21.90;99.90;;;;;;5059795;28;20540;-56
2023/06/08 10:16:54;;;;;;;9.85;4.50;;;21.90;98.20;;;;;;5060521;28;20045;-57
2023/06/08 10:19:21;;;;;;;10.30;4.68;;;21.90;99.40;;;;;;5060058;28;20110;-56
2023/06/08 10:21:48;;;;;;;13.40;4.35;;;21.80;99.10;;;;;;5077255;28;20107;-56
2023/06/08 10:24:15;;;;;;;10.30;4.63;;;21.80;99.00;;;;;;5077499;28;20048;-57
2023/06/08 10:26:41;;;;;;;9.23;4.05;;;21.80;98.80;;;;;;5066279;28;20037;-57
2023/06/08 10:29:10;;;;;;;13.07;4.38;;;21.80;98.70;;;;;;5072324;28;20051;-58
2023/06/08 10:31:41;;;;;;;8.98;4.13;;;21.80;98.40;;;;;;5069684;28;20076;-57
2023/06/08 10:34:15;;;;;;;8.45;4.00;;;21.80;98.40;;;;;;5064296;28;20110;-57
2023/06/08 10:36:42;;;;;;;10.68;3.92;;;21.70;98.20;;;;;;5063685;28;20045;-57
2023/06/08 10:39:12;;;;;;;10.57;4.15;;;21.80;97.70;;;;;;5062477;28;20048;-56
2023/06/08 10:41:43;;;;;;;14.73;4.57;;;21.70;97.40;;;;;;5074717;28;20036;-57
2023/06/08 10:44:31;;;;;;;8.05;3.60;;;21.70;97.40;;;;;;5061898;28;20045;-57
2023/06/08 10:47:00;;;;;;;13.00;4.32;;;21.60;97.50;;;;;;5069147;28;20041;-56
2023/06/08 10:49:33;;;;;;;11.32;3.95;;;21.80;97.60;;;;;;5072932;28;20162;-56
2023/06/08 10:52:00;;;;;;;7.88;4.20;;;21.90;97.30;;;;;;5064512;28;20549;-57
2023/06/08 10:54:26;;;;;;;8.88;3.67;;;22.00;97.30;;;;;;5059597;28;20041;-57
2023/06/08 10:56:55;;;;;;;10.30;4.55;;;22.00;97.00;;;;;;5059478;28;20110;-56
2023/06/08 10:59:37;;;;;;;10.95;4.03;;;22.10;96.90;;;;;;5059563;28;20049;-56
2023/06/08 11:02:04;;;;;;;13.77;4.15;;;22.10;96.10;;;;;;5073040;28;20049;-56
2023/06/08 11:04:31;;;;;;;12.52;3.95;;;22.10;96.80;;;;;;5079078;28;20075;-55
2023/06/08 11:07:01;;;;;;;9.73;4.10;;;22.10;96.70;;;;;;5078229;28;20112;-56
2023/06/08 11:09:33;;;;;;;10.82;4.55;;;22.20;97.20;;;;;;5063905;28;20116;-57
2023/06/08 11:12:00;;;;;;;11.40;4.20;;;22.30;96.50;;;;;;5060151;28;20064;-56
2023/06/08 11:14:26;;;;;;;10.23;3.85;;;22.30;97.00;;;;;;5061026;28;20051;-56
2023/06/08 11:16:56;;;;;;;7.70;3.80;;;22.50;97.60;;;;;;5059454;28;20064;-56
2023/06/08 11:19:30;;;;;;;11.18;4.20;;;22.60;98.00;;;;;;5065829;28;20028;-57
2023/06/08 11:21:56;;;;;;;8.18;4.43;;;22.80;98.40;;;;;;5062623;28;20052;-57
2023/06/08 11:24:28;;;;;;;8.80;4.22;;;23.00;97.90;;;;;;5062828;28;20028;-57
2023/06/08 11:27:01;;;;;;;11.25;5.00;;;23.10;97.70;;;;;;5079036;28;20044;-57
2023/06/08 11:29:27;;;;;;;11.55;4.22;;;23.20;96.80;;;;;;5078791;28;20101;-57
2023/06/08 11:31:54;;;;;;;8.30;4.40;;;23.20;96.40;;;;;;5066558;28;20041;-57
2023/06/08 11:34:22;;;;;;;12.57;4.60;;;23.10;95.90;;;;;;5078750;28;20048;-58
2023/06/08 11:36:49;;;;;;;9.30;3.90;;;23.10;95.70;;;;;;5070382;28;20075;-56
2023/06/08 11:39:15;;;;;;;11.98;4.35;;;23.10;94.90;;;;;;5063317;28;20052;-57
2023/06/08 11:41:46;;;;;;;13.65;4.47;;;23.10;95.20;;;;;;5063122;28;20048;-57
2023/06/08 11:44:15;;;;;;;9.93;4.30;;;23.20;95.40;;;;;;5058065;28;20045;-57
2023/06/08 11:46:41;;;;;;;9.38;4.45;;;23.30;95.30;;;;;;5063350;28;20032;-57
2023/06/08 11:49:11;;;;;;;8.00;4.18;;;23.50;95.50;;;;;;5077766;28;20098;-57
2023/06/08 11:51:47;;;;;;;12.07;4.88;;;23.60;94.80;;;;;;5070086;28;20096;-57
2023/06/08 11:54:13;;;;;;;10.27;3.67;;;23.70;93.50;;;;;;5064568;28;20094;-56
2023/06/08 11:56:39;;;;;;;8.10;4.30;;;23.80;94.00;;;;;;5068652;28;20058;-57
2023/06/08 11:59:05;;;;;;;12.02;5.25;;;23.80;94.00;;;;;;5072298;28;20048;-56
2023/06/08 12:01:31;;;;;;;9.90;4.45;;;23.80;93.60;;;;;;5071053;28;20132;-56
2023/06/08 12:03:56;;;;;;;10.80;4.53;;;23.80;93.10;;;;;;5058531;28;20528;-57
2023/06/08 12:06:27;;;;;;;8.27;4.32;;;23.70;92.80;;;;;;5061054;28;20085;-57
2023/06/08 12:08:54;;;;;;;11.98;4.22;;;23.80;93.20;;;;;;5078008;28;20071;-57
2023/06/08 12:11:21;;;;;;;8.43;3.88;;;23.90;93.30;;;;;;5075407;28;20112;-57
2023/06/08 12:13:47;;;;;;;9.50;4.10;;;24.10;93.50;;;;;;5057963;28;20521;-57
2023/06/08 12:16:13;;;;;;;13.48;5.00;;;24.20;93.40;;;;;;5058749;28;20045;-57
2023/06/08 12:18:41;;;;;;;11.65;4.15;;;24.30;92.80;;;;;;5058612;28;20041;-57
2023/06/08 12:21:12;;;;;;;10.43;4.22;;;24.30;93.10;;;;;;5058191;28;20052;-57
2023/06/08 12:23:37;;;;;;;10.80;4.10;;;24.40;92.70;;;;;;5057423;28;20055;-56
2023/06/08 12:26:03;;;;;;;9.20;4.30;;;24.50;92.40;;;;;;5060475;28;20120;-57
2023/06/08 12:28:31;;;;;;;8.95;4.05;;;24.60;92.50;;;;;;5061119;28;20041;-57
2023/06/08 12:31:00;;;;;;;8.75;3.80;;;24.80;92.00;;;;;;5061901;28;20051;-57
2023/06/08 12:33:29;;;;;;;9.55;4.20;;;24.90;92.00;;;;;;5060816;28;20052;-57
2023/06/08 12:35:54;;;;;;;7.65;3.67;;;25.20;92.50;;;;;;5062168;28;20087;-57
2023/06/08 12:38:21;;;;;;;9.10;3.88;;;25.50;92.70;;;;;;5062005;28;20053;-58
2023/06/08 12:40:50;;;;;;;9.88;4.40;;;25.70;92.30;;;;;;5062580;28;20476;-57